Time;durP1;ratioP1;P1;durP2;ratioP2;P2;SDS_P1;SDS_P2;PMS_P1;PMS_P2;Temp;Humidity;BMP_temperature;BMP_pressure;BME280_temperature;BME280_humidity;BME280_pressure;Samples;Min_cycle;Max_cycle;Signal;HPM_P1;HPM_P2
2021/08/10 00:00:51;;;;;;;2.47;2.38;;;19.40;63.50;;;;;;5033468;28;20044;-85
2021/08/10 00:03:17;;;;;;;2.40;2.30;;;19.40;63.70;;;;;;5031854;28;20033;-85
2021/08/10 00:05:47;;;;;;;2.45;2.35;;;19.40;63.70;;;;;;5032599;28;20041;-85
2021/08/10 00:08:17;;;;;;;2.10;2.00;;;19.40;63.70;;;;;;5036601;28;20045;-85
2021/08/10 00:10:44;;;;;;;2.70;2.60;;;19.30;63.80;;;;;;5016802;28;20029;-84
2021/08/10 00:13:11;;;;;;;2.20;2.10;;;19.30;63.80;;;;;;5018224;28;20028;-79
2021/08/10 00:15:38;;;;;;;2.42;2.33;;;19.30;63.90;;;;;;5033320;28;20040;-85
2021/08/10 00:18:05;;;;;;;2.40;2.30;;;19.30;63.90;;;;;;5031023;28;20041;-85
2021/08/10 00:20:31;;;;;;;2.35;2.25;;;19.20;64.00;;;;;;5017804;28;20049;-84
2021/08/10 00:22:57;;;;;;;2.33;2.10;;;19.20;64.00;;;;;;5035004;28;20038;-84
2021/08/10 00:25:23;;;;;;;2.25;2.15;;;19.20;64.00;;;;;;5035556;28;20510;-84
2021/08/10 00:27:50;;;;;;;3.08;2.60;;;19.20;64.10;;;;;;5034941;28;20049;-85
2021/08/10 00:30:16;;;;;;;2.30;2.20;;;19.10;64.10;;;;;;5033202;28;20470;-85
2021/08/10 00:32:42;;;;;;;2.20;2.10;;;19.10;64.20;;;;;;5030762;28;20049;-84
2021/08/10 00:35:08;;;;;;;2.30;2.20;;;19.10;64.30;;;;;;5037019;28;20356;-85
2021/08/10 00:37:34;;;;;;;2.30;2.20;;;19.10;64.30;;;;;;5026465;28;20025;-84
2021/08/10 00:40:00;;;;;;;2.33;2.22;;;19.10;64.40;;;;;;5042394;28;20033;-84
2021/08/10 00:42:26;;;;;;;2.40;2.30;;;19.10;64.40;;;;;;5033519;28;20031;-85
2021/08/10 00:44:52;;;;;;;2.35;2.25;;;19.00;64.50;;;;;;5029939;28;20021;-85
2021/08/10 00:47:18;;;;;;;2.35;2.25;;;19.10;64.60;;;;;;5036529;28;20033;-84
2021/08/10 00:49:45;;;;;;;2.63;2.45;;;19.00;64.60;;;;;;5034613;28;20037;-83
2021/08/10 00:52:11;;;;;;;2.13;2.03;;;19.00;64.70;;;;;;5034038;28;20025;-84
2021/08/10 00:54:37;;;;;;;2.40;2.30;;;19.00;64.80;;;;;;5015521;28;20028;-85
2021/08/10 00:57:03;;;;;;;2.47;2.15;;;19.00;64.90;;;;;;5030338;28;20494;-84
2021/08/10 00:59:29;;;;;;;3.20;2.53;;;19.00;64.90;;;;;;5034420;28;20029;-85
2021/08/10 01:01:55;;;;;;;2.20;2.10;;;18.90;64.90;;;;;;5035157;28;20037;-85
2021/08/10 01:04:21;;;;;;;2.10;2.00;;;18.90;64.90;;;;;;5034169;28;20037;-86
2021/08/10 01:06:47;;;;;;;2.53;2.33;;;18.90;65.00;;;;;;5015413;28;20487;-85
2021/08/10 01:09:21;;;;;;;10.18;2.35;;;18.90;65.10;;;;;;5046152;28;20053;-85
2021/08/10 01:12:06;;;;;;;2.38;2.28;;;18.90;65.20;;;;;;4997763;28;20494;-86
2021/08/10 01:14:51;;;;;;;2.22;2.13;;;18.90;65.20;;;;;;5044825;28;20386;-85
2021/08/10 01:17:25;;;;;;;2.10;2.00;;;18.90;65.20;;;;;;5034646;28;20383;-85
2021/08/10 01:19:54;;;;;;;2.45;2.35;;;18.90;65.30;;;;;;5017510;28;20033;-85
2021/08/10 01:22:21;;;;;;;2.20;2.10;;;18.80;65.20;;;;;;5032316;28;20029;-85
2021/08/10 01:25:24;;;;;;;2.28;2.17;;;18.80;65.20;;;;;;5017214;28;20025;-85
2021/08/10 01:28:12;;;;;;;1.98;1.88;;;18.80;65.30;;;;;;5033430;28;20044;-85
2021/08/10 01:31:04;;;;;;;2.58;2.47;;;18.80;65.40;;;;;;5034210;28;20037;-86
2021/08/10 01:33:33;;;;;;;2.20;2.10;;;18.80;65.50;;;;;;4975152;28;20066;-85
2021/08/10 01:35:59;;;;;;;2.75;2.53;;;18.80;65.50;;;;;;4937929;28;20043;-85
2021/08/10 01:38:25;;;;;;;2.15;2.05;;;18.80;65.50;;;;;;4972022;28;20404;-85
2021/08/10 01:40:51;;;;;;;2.10;2.00;;;18.70;65.50;;;;;;4994071;28;20047;-85
2021/08/10 01:43:17;;;;;;;2.10;2.00;;;18.70;65.60;;;;;;4991287;28;20404;-85
2021/08/10 01:45:46;;;;;;;2.30;2.20;;;18.70;65.60;;;;;;4971534;28;20042;-86
2021/08/10 01:48:12;;;;;;;2.20;2.10;;;18.70;65.70;;;;;;4940042;28;20046;-85
2021/08/10 01:50:38;;;;;;;1.92;1.83;;;18.70;65.80;;;;;;4957970;28;20043;-86
2021/08/10 01:53:05;;;;;;;2.40;2.30;;;18.60;65.80;;;;;;4978943;28;20050;-86
2021/08/10 01:55:31;;;;;;;2.00;1.90;;;18.60;65.90;;;;;;4977864;28;20147;-85
2021/08/10 01:57:57;;;;;;;1.98;1.88;;;18.70;66.70;;;;;;4978613;28;20071;-85
2021/08/10 02:00:23;;;;;;;2.03;1.92;;;18.70;65.90;;;;;;4958051;28;20053;-85
2021/08/10 02:02:49;;;;;;;2.50;2.38;;;18.60;65.90;;;;;;4988199;28;20026;-86
2021/08/10 02:05:15;;;;;;;2.20;2.10;;;18.60;66.00;;;;;;4967448;28;20046;-86
2021/08/10 02:07:41;;;;;;;2.25;2.15;;;18.60;66.00;;;;;;4971411;28;20404;-85
2021/08/10 02:10:08;;;;;;;2.20;2.10;;;18.60;66.10;;;;;;5016364;28;20046;-86
2021/08/10 02:12:36;;;;;;;4.22;2.22;;;18.50;66.10;;;;;;5029474;28;20033;-85
2021/08/10 02:15:02;;;;;;;1.92;1.83;;;18.60;66.20;;;;;;5029829;28;20030;-83
2021/08/10 02:17:28;;;;;;;2.13;2.03;;;18.50;66.20;;;;;;5031849;28;20025;-86
2021/08/10 02:19:54;;;;;;;2.00;1.90;;;18.50;66.30;;;;;;5029446;28;20270;-85
2021/08/10 02:22:20;;;;;;;2.22;2.13;;;18.50;66.40;;;;;;5028967;28;20037;-85
2021/08/10 02:24:52;;;;;;;2.08;1.98;;;18.50;66.40;;;;;;5028688;28;20038;-85
2021/08/10 02:27:26;;;;;;;2.03;1.92;;;18.50;66.50;;;;;;5030193;28;20041;-86
2021/08/10 02:29:52;;;;;;;2.00;1.90;;;18.40;66.40;;;;;;5029958;28;20026;-85
2021/08/10 02:32:22;;;;;;;2.25;2.15;;;18.50;66.50;;;;;;5031052;28;20049;-85
2021/08/10 02:34:49;;;;;;;2.03;1.92;;;18.40;66.50;;;;;;5028659;28;20044;-84
2021/08/10 02:37:15;;;;;;;2.10;2.00;;;18.40;66.60;;;;;;5035588;28;20032;-84
2021/08/10 02:39:43;;;;;;;2.10;2.00;;;18.40;66.60;;;;;;5045556;28;20025;-85
2021/08/10 02:42:09;;;;;;;1.90;1.80;;;18.40;66.60;;;;;;5016842;28;20041;-85
2021/08/10 02:44:36;;;;;;;2.00;1.90;;;18.40;67.50;;;;;;5018987;28;20025;-85
2021/08/10 02:47:02;;;;;;;2.40;2.30;;;18.30;66.70;;;;;;5035346;28;20041;-85
2021/08/10 02:49:28;;;;;;;2.00;1.90;;;18.40;66.80;;;;;;5044305;28;20032;-85
2021/08/10 02:51:54;;;;;;;2.40;2.00;;;18.30;66.80;;;;;;5044318;28;20048;-86
2021/08/10 02:54:21;;;;;;;2.30;2.20;;;18.30;66.80;;;;;;5036083;28;20025;-86
2021/08/10 02:56:52;;;;;;;2.40;2.30;;;18.30;67.00;;;;;;5032269;28;20410;-86
2021/08/10 02:59:34;;;;;;;2.58;2.38;;;18.30;67.00;;;;;;5037137;28;20040;-85
2021/08/10 03:02:13;;;;;;;2.13;2.03;;;18.20;67.10;;;;;;5031477;28;20042;-85
2021/08/10 03:04:45;;;;;;;2.13;2.03;;;18.20;67.50;;;;;;5032681;28;20032;-84
2021/08/10 03:07:11;;;;;;;15.60;2.33;;;18.10;67.10;;;;;;5020179;28;20021;-85
2021/08/10 03:09:37;;;;;;;2.10;2.00;;;18.10;67.20;;;;;;5037113;28;20020;-85
2021/08/10 03:12:05;;;;;;;1.92;1.83;;;18.10;67.30;;;;;;5015842;28;20034;-85
2021/08/10 03:14:32;;;;;;;2.20;2.10;;;18.10;67.30;;;;;;5019101;28;20038;-85
2021/08/10 03:17:00;;;;;;;1.95;1.85;;;18.10;67.40;;;;;;5035816;28;20033;-85
2021/08/10 03:19:26;;;;;;;2.15;2.05;;;18.00;67.30;;;;;;5003613;28;20052;-85
2021/08/10 03:21:52;;;;;;;2.08;1.98;;;18.00;67.50;;;;;;5036782;28;20495;-85
2021/08/10 03:24:18;;;;;;;4.82;2.42;;;18.00;67.50;;;;;;5032425;28;20040;-86
2021/08/10 03:26:44;;;;;;;1.90;1.80;;;17.90;67.50;;;;;;5016092;28;20064;-85
2021/08/10 03:29:10;;;;;;;2.10;2.00;;;17.90;67.70;;;;;;5020437;28;20038;-86
2021/08/10 03:31:38;;;;;;;2.40;2.30;;;17.90;67.70;;;;;;5034674;28;20026;-85
2021/08/10 03:34:04;;;;;;;2.00;1.90;;;17.90;67.70;;;;;;5018864;28;20536;-84
2021/08/10 03:36:30;;;;;;;2.13;2.03;;;17.90;67.70;;;;;;5033884;28;20025;-86
2021/08/10 03:38:56;;;;;;;2.30;2.20;;;17.90;67.80;;;;;;5014812;28;20029;-87
2021/08/10 03:41:23;;;;;;;2.30;2.10;;;17.90;67.80;;;;;;5036642;28;20376;-86
2021/08/10 03:43:49;;;;;;;2.20;2.10;;;17.80;67.70;;;;;;5017814;28;20041;-86
2021/08/10 03:46:15;;;;;;;2.10;2.00;;;17.90;67.80;;;;;;5034546;28;20479;-86
2021/08/10 03:48:43;;;;;;;2.20;2.10;;;17.90;67.80;;;;;;5016365;28;20041;-86
2021/08/10 03:51:12;;;;;;;2.00;1.90;;;17.80;67.90;;;;;;5032142;28;20040;-86
2021/08/10 03:53:39;;;;;;;2.25;2.15;;;17.80;67.90;;;;;;5033015;28;20037;-85
2021/08/10 03:56:05;;;;;;;2.45;2.25;;;17.80;67.90;;;;;;5034552;28;20042;-86
2021/08/10 03:58:35;;;;;;;2.20;2.10;;;17.80;68.00;;;;;;5002765;28;20052;-85
2021/08/10 04:01:02;;;;;;;9.93;2.00;;;17.80;68.10;;;;;;5017702;28;20435;-86
2021/08/10 04:03:31;;;;;;;2.20;2.10;;;17.70;68.00;;;;;;5033116;28;20044;-86
2021/08/10 04:06:00;;;;;;;2.22;2.08;;;17.70;68.00;;;;;;4998914;28;20033;-86
2021/08/10 04:08:26;;;;;;;2.33;2.13;;;17.70;68.10;;;;;;5027641;28;20041;-86
2021/08/10 04:10:52;;;;;;;2.00;1.90;;;17.70;68.20;;;;;;5032811;28;20060;-86
2021/08/10 04:13:19;;;;;;;2.00;1.90;;;17.70;68.20;;;;;;5033903;28;20040;-87
2021/08/10 04:15:46;;;;;;;2.58;2.38;;;17.70;68.30;;;;;;5017800;28;20386;-85
2021/08/10 04:18:14;;;;;;;2.33;2.22;;;17.60;68.30;;;;;;5032163;28;20037;-85
2021/08/10 04:20:40;;;;;;;2.33;2.13;;;17.60;68.30;;;;;;5033177;28;20045;-85
2021/08/10 04:23:06;;;;;;;2.65;2.10;;;17.60;68.30;;;;;;5037212;28;20048;-87
2021/08/10 04:25:33;;;;;;;2.03;1.92;;;17.60;68.30;;;;;;5034464;28;20037;-85
2021/08/10 04:27:59;;;;;;;2.22;2.00;;;17.60;68.30;;;;;;5034910;28;20041;-85
2021/08/10 04:30:25;;;;;;;1.88;1.77;;;17.50;68.30;;;;;;5034322;28;20394;-85
2021/08/10 04:32:51;;;;;;;2.10;2.00;;;17.60;68.50;;;;;;5029792;28;20046;-86
2021/08/10 04:35:19;;;;;;;2.05;1.95;;;17.60;68.50;;;;;;5036479;28;20029;-84
2021/08/10 04:37:45;;;;;;;2.00;1.90;;;17.50;68.50;;;;;;5034311;28;20109;-84
2021/08/10 04:40:11;;;;;;;2.00;1.90;;;17.50;68.50;;;;;;5034332;28;20036;-86
2021/08/10 04:42:37;;;;;;;2.30;2.20;;;17.50;68.60;;;;;;5033408;28;20036;-85
2021/08/10 04:45:04;;;;;;;2.10;2.00;;;17.50;68.60;;;;;;5029968;28;20033;-84
2021/08/10 04:47:30;;;;;;;1.88;1.77;;;17.40;68.60;;;;;;5034267;28;20033;-85
2021/08/10 04:49:58;;;;;;;2.88;2.67;;;17.40;68.70;;;;;;5034413;28;20040;-86
2021/08/10 04:52:24;;;;;;;2.10;2.00;;;17.40;68.70;;;;;;5034805;28;20053;-85
2021/08/10 04:54:50;;;;;;;2.10;2.00;;;17.40;68.70;;;;;;5034421;28;20838;-85
2021/08/10 04:57:16;;;;;;;2.35;2.25;;;17.40;68.70;;;;;;5032869;28;20034;-85
2021/08/10 04:59:42;;;;;;;2.10;2.00;;;17.40;68.80;;;;;;5032274;28;20417;-85
2021/08/10 05:02:08;;;;;;;2.38;2.28;;;17.40;68.80;;;;;;5035264;28;20045;-85
2021/08/10 05:04:34;;;;;;;2.08;1.90;;;17.40;69.60;;;;;;5033825;28;20387;-85
2021/08/10 05:07:04;;;;;;;2.00;1.90;;;17.40;68.90;;;;;;5034828;28;20033;-86
2021/08/10 05:09:33;;;;;;;2.15;2.05;;;17.40;68.90;;;;;;5031798;28;20040;-85
2021/08/10 05:11:59;;;;;;;2.38;2.20;;;17.30;68.90;;;;;;5013563;28;20029;-86
2021/08/10 05:14:25;;;;;;;2.50;2.38;;;17.30;68.90;;;;;;5036434;28;20056;-85
2021/08/10 05:16:51;;;;;;;2.22;2.13;;;17.30;68.90;;;;;;5032861;28;20045;-86
2021/08/10 05:19:18;;;;;;;2.05;1.95;;;17.30;68.90;;;;;;5034754;28;20030;-82
2021/08/10 05:21:44;;;;;;;2.08;1.98;;;17.30;68.90;;;;;;5032855;28;20053;-86
2021/08/10 05:24:10;;;;;;;2.30;2.20;;;17.40;68.90;;;;;;5031073;28;20087;-86
2021/08/10 05:26:36;;;;;;;2.45;2.28;;;17.30;68.90;;;;;;5036917;28;20037;-86
2021/08/10 05:29:02;;;;;;;2.55;2.45;;;17.40;68.90;;;;;;5052666;28;20475;-85
2021/08/10 05:31:28;;;;;;;2.03;1.92;;;17.60;68.80;;;;;;5038183;28;20045;-84
2021/08/10 05:33:54;;;;;;;2.20;2.10;;;17.70;68.50;;;;;;5038776;28;20560;-82
2021/08/10 05:36:20;;;;;;;2.03;1.92;;;17.90;68.30;;;;;;5019707;28;20048;-85
2021/08/10 05:38:49;;;;;;;2.00;1.90;;;18.10;68.00;;;;;;5035352;28;20041;-81
2021/08/10 05:41:16;;;;;;;2.30;2.20;;;18.30;67.80;;;;;;5023008;28;20398;-86
2021/08/10 05:43:42;;;;;;;2.20;2.10;;;18.30;67.60;;;;;;5023020;28;20056;-86
2021/08/10 05:46:08;;;;;;;2.22;2.13;;;18.30;67.60;;;;;;5036939;28;20038;-85
2021/08/10 05:48:34;;;;;;;2.40;2.30;;;18.40;67.70;;;;;;5038391;28;20382;-85
2021/08/10 05:51:03;;;;;;;2.28;2.17;;;18.50;67.60;;;;;;5033188;28;20030;-85
2021/08/10 05:53:31;;;;;;;2.63;2.35;;;18.70;67.50;;;;;;5021462;28;20022;-85
2021/08/10 05:55:58;;;;;;;2.30;2.20;;;18.90;67.20;;;;;;5037846;28;20045;-85
2021/08/10 05:58:24;;;;;;;2.50;2.38;;;19.10;66.90;;;;;;5037197;28;20038;-86
2021/08/10 06:00:50;;;;;;;2.97;2.88;;;19.40;66.60;;;;;;5036066;28;20511;-85
2021/08/10 06:03:16;;;;;;;3.42;3.33;;;19.60;66.20;;;;;;5036179;28;20036;-84
2021/08/10 06:05:42;;;;;;;5.18;2.95;;;19.80;65.90;;;;;;5035778;28;20036;-85
2021/08/10 06:08:08;;;;;;;3.75;3.50;;;19.90;65.60;;;;;;5053021;28;20025;-85
2021/08/10 06:10:35;;;;;;;3.80;3.60;;;19.90;65.60;;;;;;5036896;28;20033;-85
2021/08/10 06:13:01;;;;;;;3.50;3.40;;;19.90;65.90;;;;;;5042174;28;20025;-85
2021/08/10 06:15:27;;;;;;;3.28;3.17;;;19.70;66.10;;;;;;5048960;28;20029;-87
2021/08/10 06:17:54;;;;;;;3.67;2.92;;;19.60;66.40;;;;;;5032407;28;20045;-86
2021/08/10 06:20:20;;;;;;;3.00;2.80;;;19.70;66.60;;;;;;5018327;28;20041;-86
2021/08/10 06:22:47;;;;;;;3.05;2.95;;;19.80;66.50;;;;;;5050974;28;20060;-85
2021/08/10 06:25:13;;;;;;;3.35;3.20;;;20.00;66.10;;;;;;5038030;28;20021;-84
2021/08/10 06:27:39;;;;;;;3.33;3.13;;;20.30;65.70;;;;;;5036493;28;20029;-85
2021/08/10 06:30:06;;;;;;;3.70;3.50;;;20.50;65.30;;;;;;5032433;28;20045;-85
2021/08/10 06:32:32;;;;;;;3.47;3.28;;;20.80;65.00;;;;;;5020159;28;20497;-87
2021/08/10 06:34:58;;;;;;;3.20;3.10;;;21.00;64.60;;;;;;5036808;28;20037;-85
2021/08/10 06:37:25;;;;;;;3.00;2.90;;;21.10;64.30;;;;;;5037295;28;20398;-84
2021/08/10 06:39:51;;;;;;;3.72;3.53;;;21.30;64.10;;;;;;5019752;28;20060;-86
2021/08/10 06:42:20;;;;;;;4.38;4.18;;;21.50;63.90;;;;;;5035731;28;20044;-86
2021/08/10 06:44:47;;;;;;;3.97;3.78;;;21.60;63.80;;;;;;5033916;28;20041;-86
2021/08/10 06:47:14;;;;;;;4.15;3.95;;;21.70;63.60;;;;;;5038084;28;20045;-85
2021/08/10 06:49:40;;;;;;;4.28;4.07;;;21.80;63.40;;;;;;5036176;28;20379;-85
2021/08/10 06:52:07;;;;;;;4.20;4.00;;;22.00;63.30;;;;;;5035874;28;20033;-85
2021/08/10 06:54:33;;;;;;;3.97;3.78;;;22.10;63.10;;;;;;5037241;28;20025;-86
2021/08/10 06:57:04;;;;;;;3.90;3.70;;;22.20;62.90;;;;;;5031897;28;20037;-86
2021/08/10 06:59:32;;;;;;;4.25;3.97;;;22.40;62.90;;;;;;5036457;28;20097;-85
2021/08/10 07:01:58;;;;;;;4.55;4.35;;;22.50;62.70;;;;;;5049600;28;20498;-85
2021/08/10 07:04:24;;;;;;;4.70;4.50;;;22.70;62.60;;;;;;5036956;28;20612;-86
2021/08/10 07:06:50;;;;;;;4.18;3.97;;;22.80;62.30;;;;;;5036593;28;20037;-86
2021/08/10 07:09:16;;;;;;;4.93;4.72;;;22.90;62.10;;;;;;5016081;28;20049;-86
2021/08/10 07:11:43;;;;;;;4.03;3.83;;;23.10;61.90;;;;;;5035061;28;20491;-86
2021/08/10 07:14:11;;;;;;;4.40;4.20;;;23.30;61.70;;;;;;5035440;28;20041;-85
2021/08/10 07:16:42;;;;;;;4.45;4.25;;;23.40;61.50;;;;;;5043853;28;20033;-85
2021/08/10 07:19:08;;;;;;;5.00;4.70;;;23.60;61.30;;;;;;5041472;28;20018;-86
2021/08/10 07:21:34;;;;;;;4.97;4.78;;;23.70;61.10;;;;;;5018842;28;20041;-86
2021/08/10 07:24:00;;;;;;;5.00;4.80;;;23.80;61.00;;;;;;5031365;28;20022;-86
2021/08/10 07:26:26;;;;;;;5.55;5.25;;;23.90;60.80;;;;;;5038656;28;20037;-86
2021/08/10 07:28:53;;;;;;;10.65;5.25;;;24.10;61.60;;;;;;5035467;28;20048;-86
2021/08/10 07:31:19;;;;;;;5.30;5.10;;;24.20;60.60;;;;;;5032773;28;20064;-85
2021/08/10 07:33:45;;;;;;;5.68;5.38;;;24.30;61.20;;;;;;5035208;28;20045;-86
2021/08/10 07:36:11;;;;;;;5.50;5.22;;;24.40;60.30;;;;;;5015860;28;20054;-87
2021/08/10 07:38:37;;;;;;;5.68;5.38;;;24.50;60.20;;;;;;5035526;28;20040;-86
2021/08/10 07:41:03;;;;;;;6.18;5.88;;;24.60;60.10;;;;;;5037476;28;20038;-86
2021/08/10 07:43:29;;;;;;;6.68;6.38;;;24.70;59.90;;;;;;5036263;28;20021;-85
2021/08/10 07:45:55;;;;;;;6.57;6.22;;;24.90;59.80;;;;;;5035803;28;20042;-87
2021/08/10 07:48:21;;;;;;;6.95;6.65;;;24.90;59.70;;;;;;5014510;28;20450;-86
2021/08/10 07:50:48;;;;;;;6.35;6.05;;;24.90;59.70;;;;;;5033750;28;24510;-85
2021/08/10 07:53:20;;;;;;;6.45;6.15;;;24.90;59.90;;;;;;5036898;28;20447;-86
2021/08/10 07:55:47;;;;;;;6.40;6.10;;;24.90;59.90;;;;;;5035785;28;20053;-86
2021/08/10 07:58:13;;;;;;;6.32;6.03;;;24.90;59.80;;;;;;5033415;28;20036;-86
2021/08/10 08:00:39;;;;;;;6.75;6.45;;;25.00;59.70;;;;;;5035659;28;20504;-86
2021/08/10 08:03:05;;;;;;;6.50;6.20;;;25.20;59.60;;;;;;5031286;28;20063;-86
2021/08/10 08:05:32;;;;;;;6.95;6.65;;;25.40;59.20;;;;;;5034585;28;20037;-86
2021/08/10 08:07:58;;;;;;;8.07;7.10;;;25.60;59.00;;;;;;5018861;28;20039;-86
2021/08/10 08:10:25;;;;;;;8.23;7.32;;;25.80;58.70;;;;;;5016879;28;20029;-86
2021/08/10 08:12:51;;;;;;;8.70;8.30;;;25.90;58.60;;;;;;5018288;28;20029;-86
2021/08/10 08:15:17;;;;;;;12.00;8.30;;;26.00;58.40;;;;;;5033506;28;20041;-88
2021/08/10 08:17:44;;;;;;;7.30;7.00;;;26.20;58.30;;;;;;5033013;28;20022;-87
2021/08/10 08:20:10;;;;;;;7.63;7.32;;;26.20;58.20;;;;;;5035807;28;20037;-86
2021/08/10 08:22:36;;;;;;;7.38;7.00;;;26.30;58.10;;;;;;5035508;28;20042;-87
2021/08/10 08:25:03;;;;;;;8.60;8.20;;;26.40;58.00;;;;;;5030078;28;20441;-86
2021/08/10 08:27:29;;;;;;;8.98;8.57;;;26.60;57.90;;;;;;5046772;28;20039;-87
2021/08/10 08:29:55;;;;;;;7.55;7.25;;;26.60;57.70;;;;;;5030475;28;20390;-87
2021/08/10 08:32:21;;;;;;;9.52;9.13;;;26.60;57.70;;;;;;5051669;28;20033;-87
2021/08/10 08:34:47;;;;;;;9.55;9.13;;;26.60;57.70;;;;;;5033904;28;20045;-88
2021/08/10 08:37:13;;;;;;;7.13;6.82;;;26.70;57.60;;;;;;5035040;28;20506;-86
2021/08/10 08:39:39;;;;;;;10.05;9.55;;;26.70;57.40;;;;;;5035308;28;20036;-86
2021/08/10 08:42:06;;;;;;;10.20;9.70;;;26.80;57.30;;;;;;5031808;28;20037;-87
2021/08/10 08:44:35;;;;;;;8.98;8.57;;;27.00;57.20;;;;;;5035530;28;20467;-88
2021/08/10 08:47:03;;;;;;;9.00;8.60;;;27.20;56.90;;;;;;5035758;28;20391;-87
2021/08/10 08:49:29;;;;;;;7.80;7.40;;;27.30;56.70;;;;;;5034782;28;20030;-86
2021/08/10 08:51:55;;;;;;;8.93;8.52;;;27.40;56.50;;;;;;5034072;28;20025;-87
2021/08/10 08:54:22;;;;;;;7.10;6.80;;;27.40;56.30;;;;;;5016385;28;20386;-87
2021/08/10 08:56:48;;;;;;;8.93;8.52;;;27.50;56.30;;;;;;5030425;28;20048;-87
2021/08/10 08:59:15;;;;;;;8.43;8.02;;;27.70;56.10;;;;;;5036997;28;20101;-88
2021/08/10 09:01:42;;;;;;;8.25;7.85;;;27.80;55.80;;;;;;5016837;28;20050;-87
2021/08/10 09:04:08;;;;;;;8.27;7.88;;;27.90;55.60;;;;;;5017266;28;20026;-87
2021/08/10 09:06:35;;;;;;;8.32;7.93;;;28.00;55.50;;;;;;5033646;28;20028;-86
2021/08/10 09:09:21;;;;;;;7.80;7.45;;;28.10;55.30;;;;;;5029635;28;20030;-87
2021/08/10 09:11:52;;;;;;;7.95;7.50;;;28.20;55.10;;;;;;5030731;28;20030;-86
2021/08/10 09:14:18;;;;;;;7.97;7.60;;;28.30;55.10;;;;;;5035671;28;20032;-88
2021/08/10 09:17:07;;;;;;;7.63;7.30;;;28.40;55.00;;;;;;5034992;28;20037;-87
2021/08/10 09:19:49;;;;;;;7.07;6.78;;;28.50;54.80;;;;;;5033695;28;20025;-87
2021/08/10 09:22:26;;;;;;;8.52;7.95;;;28.60;54.70;;;;;;5034892;28;20041;-87
2021/08/10 09:24:54;;;;;;;7.78;7.38;;;28.60;55.30;;;;;;5033926;28;20037;-87
2021/08/10 09:27:39;;;;;;;9.25;8.85;;;28.50;54.60;;;;;;5000076;28;20037;-87
2021/08/10 09:30:05;;;;;;;8.68;8.10;;;28.50;54.60;;;;;;5016135;28;20029;-87
2021/08/10 09:32:31;;;;;;;10.73;10.25;;;28.60;54.60;;;;;;5034218;28;20378;-87
2021/08/10 09:35:09;;;;;;;8.70;8.30;;;28.70;54.30;;;;;;5058164;28;20037;-87
2021/08/10 09:37:35;;;;;;;9.63;9.15;;;28.80;54.10;;;;;;5037899;28;20029;-87
2021/08/10 09:40:25;;;;;;;11.93;11.18;;;28.80;54.00;;;;;;5033443;28;20025;-87
2021/08/10 09:42:51;;;;;;;10.43;9.93;;;29.00;53.80;;;;;;5019234;28;20385;-87
2021/08/10 09:45:17;;;;;;;11.07;10.38;;;29.00;53.70;;;;;;5029651;28;20038;-87
2021/08/10 09:47:43;;;;;;;9.60;9.18;;;29.10;53.60;;;;;;5031875;28;20489;-87
2021/08/10 09:50:17;;;;;;;10.82;10.32;;;29.10;53.50;;;;;;5018745;28;20041;-88
2021/08/10 09:52:43;;;;;;;10.90;10.40;;;29.20;53.40;;;;;;5034498;28;20028;-86
2021/08/10 09:55:14;;;;;;;11.75;11.23;;;29.30;53.30;;;;;;5015345;28;20029;-87
2021/08/10 09:57:43;;;;;;;10.10;9.55;;;29.30;53.10;;;;;;5015102;28;20033;-87
2021/08/10 10:00:10;;;;;;;11.48;10.95;;;29.40;53.10;;;;;;5030333;28;20065;-86
2021/08/10 10:02:36;;;;;;;9.23;8.82;;;29.40;53.20;;;;;;5032681;28;20391;-87
2021/08/10 10:05:03;;;;;;;12.05;11.45;;;29.50;52.80;;;;;;5035412;28;20064;-87
2021/08/10 10:07:29;;;;;;;10.82;10.32;;;29.50;52.60;;;;;;5034320;28;20033;-86
2021/08/10 10:09:55;;;;;;;9.38;8.88;;;29.30;52.80;;;;;;5031259;28;20034;-87
2021/08/10 10:12:22;;;;;;;10.60;10.10;;;29.30;53.00;;;;;;5035618;28;20462;-87
2021/08/10 10:14:49;;;;;;;9.52;9.07;;;29.30;52.80;;;;;;5032882;28;20168;-88
2021/08/10 10:17:15;;;;;;;10.38;9.88;;;29.40;52.70;;;;;;5038518;28;20050;-87
2021/08/10 10:19:44;;;;;;;12.13;11.57;;;29.50;52.60;;;;;;5036584;28;20040;-86
2021/08/10 10:22:16;;;;;;;13.30;12.60;;;29.70;52.50;;;;;;5036535;28;20037;-87
2021/08/10 10:24:54;;;;;;;13.40;12.80;;;29.80;52.10;;;;;;5035552;28;20044;-88
2021/08/10 10:27:20;;;;;;;12.93;12.13;;;29.90;51.80;;;;;;5035071;28;20036;-88
2021/08/10 10:29:48;;;;;;;15.30;14.13;;;30.10;51.70;;;;;;5033708;28;20044;-87
2021/08/10 10:32:17;;;;;;;13.60;13.00;;;30.10;51.40;;;;;;5052104;28;20398;-87
2021/08/10 10:34:43;;;;;;;14.10;13.45;;;30.20;51.40;;;;;;5036207;28;20475;-87
2021/08/10 10:37:09;;;;;;;12.95;12.35;;;30.30;51.20;;;;;;5019140;28;20037;-87
2021/08/10 10:39:37;;;;;;;14.18;13.52;;;30.30;51.10;;;;;;5020003;28;20025;-88
2021/08/10 10:42:06;;;;;;;12.50;11.93;;;30.40;51.00;;;;;;5032540;28;20111;-87
2021/08/10 10:44:43;;;;;;;10.35;9.85;;;30.50;50.90;;;;;;5036882;28;20521;-88
2021/08/10 10:47:24;;;;;;;11.02;10.52;;;30.50;50.50;;;;;;5052124;28;20376;-87
2021/08/10 10:49:56;;;;;;;11.02;10.52;;;30.60;50.50;;;;;;5037352;28;20390;-87
2021/08/10 10:52:25;;;;;;;10.43;9.93;;;30.60;50.40;;;;;;5037196;28;20040;-86
2021/08/10 10:54:52;;;;;;;8.73;8.33;;;30.60;50.30;;;;;;5036228;28;20034;-87
2021/08/10 10:57:31;;;;;;;10.98;10.40;;;30.60;50.30;;;;;;5033914;28;20499;-87
2021/08/10 10:59:57;;;;;;;9.90;9.40;;;30.60;50.20;;;;;;5016573;28;20049;-88
2021/08/10 11:02:26;;;;;;;9.18;8.20;;;30.60;50.20;;;;;;5048655;28;20041;-87
2021/08/10 11:05:08;;;;;;;8.82;8.13;;;30.70;50.00;;;;;;5035868;28;20430;-87
2021/08/10 11:07:55;;;;;;;9.57;9.18;;;30.80;49.70;;;;;;5037061;28;20478;-87
2021/08/10 11:10:39;;;;;;;8.20;7.80;;;30.80;49.60;;;;;;5035654;28;20037;-87
2021/08/10 11:13:32;;;;;;;7.47;7.18;;;30.70;49.50;;;;;;5035154;28;20402;-87
2021/08/10 11:15:58;;;;;;;10.48;7.88;;;30.70;49.50;;;;;;5036337;28;20470;-87
2021/08/10 11:18:26;;;;;;;9.10;8.70;;;30.70;49.40;;;;;;5035928;28;20417;-87
2021/08/10 11:20:59;;;;;;;9.18;8.77;;;30.80;49.30;;;;;;5015509;28;20045;-88
2021/08/10 11:23:26;;;;;;;9.02;8.63;;;30.90;49.20;;;;;;5036274;28;20040;-86
2021/08/10 11:25:58;;;;;;;9.40;8.90;;;30.80;48.90;;;;;;5036873;28;20394;-87
2021/08/10 11:28:31;;;;;;;8.43;8.02;;;30.80;49.00;;;;;;5036461;28;20029;-87
2021/08/10 11:31:01;;;;;;;10.07;9.57;;;30.70;49.00;;;;;;5036211;28;20486;-86
2021/08/10 11:33:47;;;;;;;8.30;7.90;;;30.80;49.00;;;;;;5034694;28;20056;-86
2021/08/10 11:36:14;;;;;;;9.20;8.57;;;30.80;48.80;;;;;;5020197;28;20037;-87
2021/08/10 11:38:51;;;;;;;7.85;7.47;;;30.80;48.70;;;;;;5034681;28;20038;-87
2021/08/10 11:41:23;;;;;;;8.73;8.32;;;30.90;48.60;;;;;;5052329;28;20129;-88
2021/08/10 11:43:52;;;;;;;9.10;8.70;;;31.00;48.40;;;;;;5045580;28;20405;-87
2021/08/10 11:46:19;;;;;;;8.35;7.95;;;31.00;48.30;;;;;;5040411;28;20486;-87
2021/08/10 11:48:49;;;;;;;8.20;7.80;;;30.90;48.20;;;;;;5033760;28;20390;-86
2021/08/10 11:51:39;;;;;;;9.05;8.65;;;30.80;48.30;;;;;;5046165;28;20038;-86
2021/08/10 11:54:08;;;;;;;7.22;6.93;;;30.80;48.20;;;;;;5017839;28;20033;-86
2021/08/10 11:56:40;;;;;;;8.38;7.97;;;30.90;48.30;;;;;;5035803;28;20044;-87
2021/08/10 11:59:13;;;;;;;7.30;7.00;;;31.00;48.20;;;;;;5050292;28;20033;-86
2021/08/10 12:01:40;;;;;;;8.35;7.95;;;31.00;48.00;;;;;;5034315;28;20037;-86
2021/08/10 12:04:23;;;;;;;8.15;7.75;;;31.10;47.90;;;;;;5035290;28;20033;-86
2021/08/10 12:06:53;;;;;;;8.07;7.68;;;31.10;47.70;;;;;;5044853;28;20032;-89
2021/08/10 12:09:20;;;;;;;;;;;31.10;47.70;;;;;;5017729;28;20041;-87
2021/08/10 12:11:51;;;;;;;9.73;9.32;;;31.10;47.70;;;;;;5032714;28;19904;-90
2021/08/10 12:14:19;;;;;;;9.40;8.60;;;31.20;47.70;;;;;;5036543;28;20029;-88
2021/08/10 12:17:10;;;;;;;9.00;8.60;;;31.20;48.20;;;;;;5035057;28;20042;-85
2021/08/10 12:19:39;;;;;;;8.25;7.85;;;31.30;47.40;;;;;;5034488;28;20021;-88
2021/08/10 12:22:15;;;;;;;10.40;9.90;;;31.30;47.40;;;;;;5040939;28;20025;-86
2021/08/10 12:24:41;;;;;;;9.18;8.77;;;31.40;47.30;;;;;;5018095;28;20032;-87
2021/08/10 12:27:09;;;;;;;10.73;10.23;;;31.50;47.30;;;;;;5014947;28;20030;-85
2021/08/10 12:29:43;;;;;;;9.00;8.60;;;31.50;47.10;;;;;;5033562;28;20022;-87
2021/08/10 12:32:11;;;;;;;8.45;8.05;;;31.50;47.30;;;;;;5039662;28;20028;-87
2021/08/10 12:34:38;;;;;;;9.45;9.05;;;31.50;47.00;;;;;;5037361;28;20490;-88
2021/08/10 12:37:05;;;;;;;9.23;8.82;;;31.40;47.00;;;;;;5035727;28;20538;-87
2021/08/10 12:39:38;;;;;;;11.05;10.55;;;31.30;47.10;;;;;;5045139;28;20470;-87
2021/08/10 12:42:04;;;;;;;10.27;9.80;;;31.20;47.10;;;;;;5030553;28;20393;-87
2021/08/10 12:44:30;;;;;;;10.07;9.57;;;31.20;47.20;;;;;;5018374;28;20029;-87
2021/08/10 12:46:57;;;;;;;8.05;7.65;;;31.10;47.20;;;;;;5052316;28;20474;-85
2021/08/10 12:49:36;;;;;;;9.68;9.25;;;31.00;47.20;;;;;;5039195;28;20041;-86
2021/08/10 12:52:04;;;;;;;10.07;9.60;;;31.00;47.20;;;;;;5034123;28;20032;-86